KAFF/AFF METAR and TAF weather

Enter ICAO airport designator
Station Type Date Time Source
KAFF METAR 2021/04/13 21:01 UTC NOAA

KAFF 132101Z AUTO 13015G19KT 10SM CLR 07/M10 A3005 RMK AO2 WSHFT 2051 SLP171


Station Type Date Time Source
KAFF Decoded METAR 2021/04/13 21:01 UTC NOAA

Air Force Academy, CO, United States (KAFF) 38-58N 104-49W 1999M
Apr 13, 2021 - 05:01 PM EDT / 2021.04.13 2101 UTC
Wind: from the SE (130 degrees) at 17 MPH (15 KT) gusting to 22 MPH (19 KT):0
Visibility: 10 mile(s):0
Sky conditions: clear
Temperature: 44 F (7 C)
Dew Point: 14 F (-10 C)
Relative Humidity: 28%
Pressure (altimeter): 30.05 in. Hg (1017 hPa)
ob: KAFF 132101Z AUTO 13015G19KT 10SM CLR 07/M10 A3005 RMK AO2 WSHFT 2051 SLP171
cycle: 21

Station Type Date Time Source
KAFF TAF 2021/04/13 20:57 UTC NOAA

TAF TAF
AMD KAFF 132052Z 1320/1501 14012G18KT 9999 SCT060 BKN200 QNH3001INS VCSH OMTNS AFT 1322
TEMPO 1320/1323 15015G25KT 520003
BECMG 1403/1404 15009KT 4800 -SN BR SCT005 OVC012 620129 QNH3008INS
BECMG 1410/1411 13009KT 9999 VCSH SCT005 BKN020 BKN040 610209 QNH3008INS
BECMG 1412/1413 13009KT 9999 VCSH FEW012 SCT025 BKN040 610409 QNH3010INS
BECMG 1415/1416 13010G15KT 9999 NSW FEW025 SCT040 BKN060 620604 QNH3006INS
BECMG 1418/1419 13014G20KT 9999 FEW025 SCT040 BKN060 620604 QNH2998INS
BECMG 1423/1424 13014KT 9999 SCT025 BKN040 BKN060 620406 QNH2998INS TX06/1321Z TNM03/1412Z LAST NO
AMDS AFT 1400 NEXT 1411

Example: see airport list